Latest Weather Observations for Nuriootpa

IDS60801

Issued at 5:12 am CDT Saturday 19 October 2019 (issued every 10 minutes, with the page automatically refreshed every 10 minutes)

About weather observations | Map of weather stations | Latest weather observations for SA | Other Formats
Station Details ID: 023373 Name: NURIOOTPA PIRSA Lat: -34.48 Lon: 139.01 Height: 275.0 m
Data from the previous 72 hours. | See also: Recent months at Nuriootpa
Date/Time
CDT
Temp
°C
App
Temp
°C
Dew
Point
°C
Rel
Hum
%
Delta-T
°C
Wind Press
QNH
hPa
Press
MSL
hPa
Rain since
9am
mm
Dir  Spd
km/h
Gust
km/h
Spd
kts
Gust
kts
19/05:00am 8.9 2.3 6.0 82 1.3 W 30 43 16 23 1017.9 1017.7 0.0
19/04:30am 8.7 3.4 6.8 88 0.9 W 24 33 13 18 1017.8 1017.5 0.0
19/04:00am 9.3 3.4 7.4 88 0.9 W 28 43 15 23 1017.8 1017.5 0.0
19/03:30am 9.6 3.7 7.4 86 1.1 W 28 39 15 21 1017.7 1017.4 0.0
19/03:00am 9.6 4.4 7.2 85 1.1 W 24 30 13 16 1017.5 1017.2 0.0
19/02:30am 9.7 5.3 7.3 85 1.2 W 20 28 11 15 1017.6 1017.3 0.0
19/02:00am 10.1 5.7 7.2 82 1.4 W 20 30 11 16 1017.7 1017.4 0.0
19/01:30am 9.7 4.7 6.6 81 1.5 W 22 32 12 17 1017.8 1017.5 0.0
19/01:00am 9.2 4.9 6.8 85 1.1 W 19 26 10 14 1017.9 1017.7 0.0
19/12:30am 9.5 5.3 7.4 87 1.0 W 19 28 10 15 1017.8 1017.5 0.0
19/12:00am 9.7 5.9 7.5 86 1.1 W 17 24 9 13 1017.8 1017.5 0.0
 
Date/Time
CDT
Temp
°C
App
Temp
°C
Dew
Point
°C
Rel
Hum
%
Delta-T
°C
Wind Press
QNH
hPa
Press
MSL
hPa
Rain since
9am
mm
Dir  Spd
km/h
Gust
km/h
Spd
kts
Gust
kts
18/11:30pm 10.1 6.0 7.7 85 1.2 W 19 24 10 13 1017.8 1017.5 0.0
18/11:00pm 10.6 6.6 8.2 85 1.2 WSW 19 26 10 14 1017.9 1017.7 0.0
18/10:30pm 10.9 6.9 8.3 84 1.3 W 19 24 10 13 1017.9 1017.7 0.0
18/10:00pm 11.1 7.1 8.1 82 1.5 W 19 26 10 14 1017.9 1017.7 0.0
18/09:30pm 11.6 7.6 8.3 80 1.6 WSW 19 30 10 16 1017.9 1017.7 0.0
18/09:00pm 11.9 7.8 8.6 80 1.7 WSW 20 28 11 15 1017.8 1017.5 0.0
18/08:30pm 12.4 8.1 9.2 81 1.6 WSW 22 37 12 20 1017.5 1017.2 0.0
18/08:00pm 12.8 8.6 9.8 82 1.6 WSW 22 32 12 17 1017.2 1016.9 0.0
18/07:30pm 13.5 9.1 10.3 81 1.7 WSW 24 33 13 18 1016.8 1016.5 0.0
18/07:00pm 14.9 9.3 10.1 73 2.5 WSW 30 39 16 21 1016.4 1016.1 0.0
18/06:30pm 17.1 10.6 8.3 56 4.6 W 32 50 17 27 1015.8 1015.5 0.0
18/06:28pm 17.3 10.8 8.2 55 4.7 W 32 50 17 27 1015.7 1015.4 0.0
18/06:00pm 17.7 9.8 7.7 52 5.1 WSW 39 52 21 28 1015.5 1015.2 0.0
18/05:31pm 18.8 11.1 7.3 47 5.9 WSW 37 56 20 30 1015.4 1015.1 0.0
18/05:30pm 18.6 11.0 7.4 48 5.7 WSW 37 52 20 28 1015.4 1015.1 0.0
18/05:08pm 19.0 10.8 6.5 44 6.3 WSW 39 59 21 32 1015.5 1015.2 0.0
18/05:00pm 18.9 11.0 6.4 44 6.3 WSW 37 54 20 29 1015.6 1015.3 0.0
18/04:30pm 19.6 11.7 6.4 42 6.7 W 37 54 20 29 1015.7 1015.4 0.0
18/04:00pm 19.5 12.4 5.6 40 6.9 WSW 32 56 17 30 1015.8 1015.5 0.0
18/03:30pm 20.1 12.9 5.7 39 7.2 WSW 33 52 18 28 1015.7 1015.4 0.0
18/03:00pm 20.1 11.6 5.0 37 7.5 W 39 61 21 33 1015.6 1015.3 0.0
18/02:31pm 20.4 12.5 4.4 35 7.8 W 35 54 19 29 1015.7 1015.4 0.0
18/02:30pm 20.1 11.8 4.2 35 7.7 W 37 54 20 29 1015.7 1015.4 0.0
18/02:00pm 20.8 13.0 4.8 35 7.9 W 35 54 19 29 1015.9 1015.6 0.0
18/01:43pm 21.0 13.5 4.6 34 8.1 W 33 54 18 29 1016.0 1015.7 0.0
18/01:30pm 20.4 12.9 4.4 35 7.8 W 33 48 18 26 1016.1 1015.8 0.0
18/01:00pm 19.8 12.3 3.5 34 7.8 W 32 50 17 27 1016.3 1016.0 0.0
18/12:33pm 19.0 11.5 3.6 36 7.4 WNW 32 50 17 27 1016.6 1016.3 0.0
18/12:30pm 19.0 11.7 4.4 38 7.1 WNW 32 44 17 24 1016.7 1016.4 0.0
18/12:00pm 17.6 11.3 5.9 46 5.8 W 28 41 15 22 1017.3 1017.0 0.0
18/11:30am 17.4 10.9 6.3 48 5.5 W 30 44 16 24 1017.4 1017.1 0.0
18/11:00am 16.5 10.3 6.3 51 5.1 WNW 28 39 15 21 1017.7 1017.4 0.0
18/10:30am 15.2 9.9 7.0 58 4.1 WNW 24 37 13 20 1017.5 1017.2 0.0
18/10:00am 14.3 7.4 6.4 59 3.9 W 32 43 17 23 1017.8 1017.5 0.0
18/09:30am 13.6 7.3 5.7 59 3.8 WNW 28 41 15 22 1017.8 1017.5 0.0
18/09:00am 13.3 7.8 4.2 54 4.2 WNW 22 28 12 15 1017.7 1017.4 0.0
18/08:30am 10.1 8.7 3.6 64 2.9 CALM 0 6 0 3 1018.1 1017.8 0.0
18/08:00am 7.3 4.7 3.2 75 1.8 NE 6 7 3 4 1017.7 1017.4 0.0
18/07:30am 4.4 1.1 2.3 86 0.9 NE 9 11 5 6 1017.5 1017.2 0.0
18/07:00am 1.7 -1.9 0.7 93 0.4 NE 9 11 5 6 1017.4 1017.1 0.0
18/06:30am 0.9 -1.1 0.0 94 0.3 CALM 0 6 0 3 1017.4 1017.1 0.0
18/06:00am 0.3 -1.8 -0.7 93 0.4 CALM 0 0 0 0 1017.3 1017.0 0.0
18/05:30am 0.7 -1.4 -0.6 91 0.5 CALM 0 0 0 0 1017.0 1016.7 0.0
18/05:00am 1.5 -1.8 0.2 91 0.5 ENE 7 9 4 5 1016.9 1016.6 0.0
18/04:30am 1.4 -0.6 0.1 91 0.5 CALM 0 0 0 0 1017.1 1016.8 0.0
18/04:00am 1.8 -1.4 0.5 91 0.5 NE 7 9 4 5 1017.2 1016.9 0.0
18/03:30am 2.0 -1.2 0.8 92 0.5 ENE 7 9 4 5 1017.5 1017.2 0.0
18/03:00am 1.9 -1.1 0.7 92 0.5 NE 6 9 3 5 1017.9 1017.7 0.0
18/02:30am 1.8 0.0 0.9 94 0.3 CALM 0 0 0 0 1018.3 1018.0 0.0
18/02:00am 0.8 -1.3 -0.6 90 0.5 CALM 0 0 0 0 1018.9 1018.6 0.0
18/01:30am 1.4 -0.6 -0.2 89 0.6 CALM 0 0 0 0 1018.9 1018.6 0.0
18/01:00am 2.7 0.9 1.4 91 0.5 CALM 0 0 0 0 1018.8 1018.5 0.0
18/12:30am 3.2 1.5 1.7 90 0.6 CALM 0 0 0 0 1018.9 1018.6 0.0
18/12:00am 2.7 0.9 1.4 91 0.5 CALM 0 0 0 0 1019.1 1018.8 0.0
 
Date/Time
CDT
Temp
°C
App
Temp
°C
Dew
Point
°C
Rel
Hum
%
Delta-T
°C
Wind Press
QNH
hPa
Press
MSL
hPa
Rain since
9am
mm
Dir  Spd
km/h
Gust
km/h
Spd
kts
Gust
kts
17/11:30pm 3.0 0.4 1.1 87 0.7 NE 4 7 2 4 1019.0 1018.7 0.0
17/11:00pm 3.6 1.9 2.0 89 0.6 CALM 0 0 0 0 1019.1 1018.8 0.0
17/10:30pm 3.5 1.8 1.7 88 0.7 CALM 0 0 0 0 1019.0 1018.7 0.0
17/10:00pm 4.0 2.3 1.7 85 0.9 CALM 0 0 0 0 1019.2 1018.9 0.0
17/09:30pm 5.8 4.2 2.4 79 1.4 CALM 0 0 0 0 1019.0 1018.7 0.0
17/09:00pm 7.8 6.4 3.8 76 1.7 CALM 0 0 0 0 1019.0 1018.7 0.0
17/08:30pm 9.3 6.7 4.1 70 2.3 SW 7 9 4 5 1018.9 1018.6 0.0
17/08:00pm 10.5 7.5 4.2 65 2.8 WSW 9 13 5 7 1018.9 1018.6 0.0
17/07:30pm 11.9 7.8 4.2 59 3.5 WSW 15 24 8 13 1018.8 1018.5 0.0
17/07:00pm 13.4 8.5 4.3 54 4.2 WSW 19 30 10 16 1018.8 1018.5 0.0
17/06:30pm 14.2 9.0 3.4 48 4.9 W 20 26 11 14 1018.7 1018.4 0.0
17/06:00pm 14.8 9.2 3.6 47 5.2 WSW 22 30 12 16 1018.7 1018.4 0.0
17/05:30pm 15.6 9.7 3.7 45 5.5 WSW 24 33 13 18 1018.5 1018.2 0.0
17/05:00pm 16.1 10.5 3.5 43 5.9 WSW 22 35 12 19 1018.3 1018.0 0.0
17/04:30pm 16.6 10.9 3.0 40 6.3 WSW 22 32 12 17 1018.2 1017.9 0.0
17/04:00pm 16.7 11.0 3.1 40 6.3 SW 22 32 12 17 1018.2 1017.9 0.0
17/03:30pm 15.8 9.7 2.6 41 6.0 WSW 24 35 13 19 1018.4 1018.1 0.0
17/03:00pm 15.9 9.4 2.7 41 6.0 WSW 26 43 14 23 1018.6 1018.3 0.0
17/02:30pm 15.1 8.9 2.0 41 5.9 WSW 24 37 13 20 1018.8 1018.5 0.0
17/02:00pm 14.7 7.8 2.6 44 5.5 WSW 28 43 15 23 1019.1 1018.8 0.0
17/01:30pm 14.8 8.0 3.3 46 5.3 SW 28 41 15 22 1019.1 1018.8 0.0
17/01:00pm 14.7 7.8 2.3 43 5.6 WSW 28 43 15 23 1019.1 1018.8 0.0
17/12:30pm 14.8 8.4 3.3 46 5.3 W 26 39 14 21 1019.2 1018.9 0.0
17/12:00pm 14.4 7.8 4.1 50 4.8 WSW 28 41 15 22 1019.3 1019.0 0.0
17/11:37am 13.9 7.2 3.4 49 4.8 WSW 28 46 15 25 1019.2 1018.9 0.0
17/11:30am 13.8 7.1 3.6 50 4.7 WSW 28 43 15 23 1019.3 1019.0 0.0
17/11:00am 12.8 5.1 3.5 53 4.2 WSW 33 46 18 25 1019.4 1019.1 0.0
17/10:30am 12.2 6.0 4.4 59 3.6 WSW 26 44 14 24 1019.3 1019.0 0.0
17/10:00am 11.3 5.2 6.6 73 2.3 W 28 41 15 22 1019.4 1019.1 0.0
17/09:30am 11.0 6.4 6.6 74 2.1 WSW 20 33 11 18 1019.0 1018.7 0.0
17/09:00am 10.1 5.4 5.9 75 2.0 WSW 20 32 11 17 1018.6 1018.3 1.0
17/08:30am 10.1 4.3 6.4 78 1.7 WSW 26 39 14 21 1018.1 1017.8 1.0
17/08:00am 8.4 3.8 6.4 87 0.9 W 20 32 11 17 1017.6 1017.3 1.0
17/07:30am 7.9 3.2 5.2 83 1.2 W 19 26 10 14 1017.0 1016.7 0.8
17/07:00am 7.1 2.4 5.3 88 0.8 W 19 24 10 13 1016.5 1016.2 0.8
17/06:30am 7.4 2.6 5.4 87 0.9 WSW 20 30 11 16 1016.2 1015.9 0.8
17/06:00am 7.4 1.9 5.7 89 0.8 W 24 35 13 19 1015.6 1015.3 0.8
17/05:30am 7.7 1.4 5.7 87 0.9 W 28 39 15 21 1015.2 1014.9 0.8
17/05:00am 7.7 2.1 5.2 84 1.1 W 24 32 13 17 1015.2 1014.9 0.8
17/04:30am 7.7 1.3 5.0 83 1.2 W 28 37 15 20 1015.3 1015.0 0.8
17/04:00am 7.8 1.7 4.9 82 1.3 W 26 35 14 19 1015.5 1015.2 0.8
17/03:30am 7.7 2.0 5.0 83 1.2 WNW 24 33 13 18 1015.6 1015.3 0.8
17/03:00am 7.5 3.2 5.1 85 1.1 W 17 24 9 13 1015.8 1015.5 0.8
17/02:30am 7.8 2.9 5.3 84 1.1 W 20 28 11 15 1015.9 1015.6 0.8
17/02:00am 8.1 3.2 5.0 81 1.4 W 20 32 11 17 1016.0 1015.7 0.8
17/01:30am 8.1 2.4 4.7 79 1.5 W 24 33 13 18 1016.2 1015.9 0.8
17/01:00am 8.0 2.8 5.3 83 1.2 W 22 30 12 16 1016.2 1015.9 0.8
17/12:30am 8.4 2.5 5.7 83 1.2 W 26 33 14 18 1016.1 1015.8 0.8
17/12:00am 8.6 3.6 6.6 87 0.9 W 22 35 12 19 1016.0 1015.7 0.8
 
Date/Time
CDT
Temp
°C
App
Temp
°C
Dew
Point
°C
Rel
Hum
%
Delta-T
°C
Wind Press
QNH
hPa
Press
MSL
hPa
Rain since
9am
mm
Dir  Spd
km/h
Gust
km/h
Spd
kts
Gust
kts
16/11:30pm 8.6 3.2 6.2 85 1.1 W 24 33 13 18 1015.9 1015.6 0.8
16/11:00pm 9.1 3.1 7.1 87 1.0 W 28 50 15 27 1015.9 1015.6 0.6
16/10:59pm 9.2 3.1 6.8 85 1.1 W 28 50 15 27 1015.9 1015.6 0.6
16/10:30pm 9.8 3.9 7.4 85 1.2 W 28 39 15 21 1015.6 1015.3 0.2
16/10:00pm 9.9 5.0 8.5 91 0.7 W 24 35 13 19 1015.5 1015.2 0.2
16/09:30pm 10.0 5.6 8.8 92 0.6 WSW 22 30 12 16 1015.4 1015.1 0.2
16/09:00pm 9.9 4.7 8.8 93 0.5 WSW 26 39 14 21 1015.4 1015.1 0.2
16/08:31pm 11.2 4.9 8.8 85 1.2 WSW 32 56 17 30 1014.9 1014.6 0.0
16/08:30pm 11.6 5.6 8.5 81 1.6 WSW 30 46 16 25 1014.9 1014.6 0.0
16/08:29pm 11.7 6.0 8.2 79 1.7 WSW 28 46 15 25 1014.8 1014.4 0.0
16/08:00pm 12.0 6.0 8.7 80 1.7 WSW 30 44 16 24 1014.3 1013.9 0.0
16/07:46pm 12.9 7.0 7.4 69 2.7 W 28 54 15 29 1013.9 1013.6 0.0
16/07:30pm 12.9 7.7 5.6 61 3.5 W 22 33 12 18 1013.7 1013.4 0.0
16/07:00pm 13.5 7.4 4.9 56 4.0 W 26 35 14 19 1013.7 1013.4 0.0
16/06:32pm 14.4 7.4 4.1 50 4.8 WSW 30 48 16 26 1013.6 1013.3 0.0
16/06:30pm 14.4 8.1 5.5 55 4.3 WSW 28 44 15 24 1013.6 1013.3 0.0
16/06:00pm 14.3 8.0 5.7 56 4.1 WSW 28 37 15 20 1013.5 1013.2 0.0
16/05:30pm 14.9 8.1 5.1 52 4.7 WSW 30 41 16 22 1013.3 1013.0 0.0
16/05:00pm 15.4 8.0 4.8 49 5.1 WSW 33 44 18 24 1012.9 1012.6 0.0
16/04:34pm 16.2 8.9 4.6 46 5.5 W 32 50 17 27 1012.6 1012.3 0.0
16/04:30pm 16.2 8.7 4.3 45 5.6 WSW 33 50 18 27 1012.4 1012.1 0.0
16/04:12pm 16.1 9.0 5.4 49 5.2 WSW 32 50 17 27 1012.4 1012.1 0.0
16/04:00pm 16.2 9.1 5.5 49 5.2 WSW 32 44 17 24 1012.3 1012.0 0.0
16/03:30pm 16.3 9.5 5.0 47 5.4 WSW 30 43 16 23 1012.4 1012.1 0.0
16/03:00pm 16.5 10.3 6.1 50 5.1 W 28 43 15 23 1012.5 1012.2 0.0
16/02:45pm 16.8 10.6 6.0 49 5.3 WSW 28 46 15 25 1012.6 1012.3 0.0
16/02:30pm 16.3 9.9 5.0 47 5.4 WSW 28 41 15 22 1012.7 1012.4 0.0
16/02:00pm 15.7 9.4 5.6 51 4.9 WSW 28 35 15 19 1012.9 1012.6 0.0
16/01:30pm 14.0 9.8 9.8 76 2.2 WSW 22 33 12 18 1013.1 1012.8 0.0
16/01:00pm 13.5 10.6 10.9 84 1.4 WSW 17 30 9 16 1013.2 1012.9 0.0
16/12:30pm 13.1 10.0 11.5 90 0.9 WSW 19 26 10 14 1013.4 1013.1 0.0
16/12:00pm 13.0 10.2 11.2 89 1.0 WSW 17 32 9 17 1013.6 1013.3 0.0
16/11:30am 13.1 11.0 11.3 89 1.0 WSW 13 19 7 10 1013.8 1013.5 0.0
16/11:00am 12.8 9.5 11.0 89 1.0 W 19 24 10 13 1013.8 1013.5 0.0
16/10:30am 12.8 9.6 11.2 90 0.9 W 19 24 10 13 1013.8 1013.5 0.0
16/10:00am 12.0 9.5 11.2 95 0.4 W 15 22 8 12 1014.1 1013.8 0.0
16/09:30am 12.3 9.0 10.9 91 0.7 W 19 24 10 13 1014.1 1013.8 0.0
16/09:00am 12.2 9.8 11.3 94 0.5 WSW 15 24 8 13 1013.8 1013.5 1.2
16/08:30am 12.0 9.9 11.1 94 0.5 WSW 13 19 7 10 1013.8 1013.5 1.2
16/08:00am 11.8 9.6 10.9 94 0.5 W 13 17 7 9 1013.7 1013.4 1.2
16/07:30am 11.7 9.8 10.4 92 0.7 WSW 11 17 6 9 1013.4 1013.1 0.2
16/07:00am 10.1 10.0 9.5 96 0.3 CALM 0 0 0 0 1012.9 1012.6 0.2
16/06:30am 9.4 9.1 8.6 95 0.4 CALM 0 0 0 0 1012.9 1012.6 0.2
16/06:00am 9.1 8.8 8.5 96 0.3 CALM 0 0 0 0 1012.5 1012.2 0.2
16/05:30am 9.0 7.9 8.4 96 0.3 WSW 4 9 2 5 1012.2 1011.9 0.2

Other formats

Comma delimited format used in spreadsheet applications
http://www.bom.gov.au/fwo/IDS60801/IDS60801.94681.axf

JavaScript Object Notation format (JSON) in row-major order
http://www.bom.gov.au/fwo/IDS60801/IDS60801.94681.json

Data quality

Most of these data are generated automatically and are frequently updated. Quality checks on data are not normally performed. It is possible for incorrect values to appear. Refer to information at About Latest Weather Observations and please check the disclaimer before using these data.